sensor_id;sensor_type;location;lat;lon;timestamp;temperature;humidity
52965;DHT22;42923;53.220;6.528;2023-05-23T00:01:41;13.60;99.90
52965;DHT22;42923;53.220;6.528;2023-05-23T00:04:08;13.60;99.90
52965;DHT22;42923;53.220;6.528;2023-05-23T00:06:34;13.60;99.90
52965;DHT22;42923;53.220;6.528;2023-05-23T00:09:01;13.70;99.90
52965;DHT22;42923;53.220;6.528;2023-05-23T00:11:27;13.70;99.90
52965;DHT22;42923;53.220;6.528;2023-05-23T00:13:54;13.60;99.90
52965;DHT22;42923;53.220;6.528;2023-05-23T00:16:20;13.70;99.90
52965;DHT22;42923;53.220;6.528;2023-05-23T00:18:47;13.60;99.90
52965;DHT22;42923;53.220;6.528;2023-05-23T00:21:15;13.60;99.90
52965;DHT22;42923;53.220;6.528;2023-05-23T00:23:41;13.70;99.90
52965;DHT22;42923;53.220;6.528;2023-05-23T00:26:08;13.60;99.90
52965;DHT22;42923;53.220;6.528;2023-05-23T00:28:36;13.60;99.90
52965;DHT22;42923;53.220;6.528;2023-05-23T00:31:02;13.60;99.90
52965;DHT22;42923;53.220;6.528;2023-05-23T00:33:28;13.60;99.90
52965;DHT22;42923;53.220;6.528;2023-05-23T00:35:54;13.80;99.90
52965;DHT22;42923;53.220;6.528;2023-05-23T00:38:20;13.60;99.90
52965;DHT22;42923;53.220;6.528;2023-05-23T00:40:46;13.60;99.90
52965;DHT22;42923;53.220;6.528;2023-05-23T00:43:12;13.50;99.90
52965;DHT22;42923;53.220;6.528;2023-05-23T00:45:38;13.60;99.90
52965;DHT22;42923;53.220;6.528;2023-05-23T00:48:05;13.50;99.90
52965;DHT22;42923;53.220;6.528;2023-05-23T00:50:32;13.60;99.90
52965;DHT22;42923;53.220;6.528;2023-05-23T00:52:59;13.50;99.90
52965;DHT22;42923;53.220;6.528;2023-05-23T00:55:26;13.50;99.90
52965;DHT22;42923;53.220;6.528;2023-05-23T00:57:54;13.70;99.90
52965;DHT22;42923;53.220;6.528;2023-05-23T01:00:25;13.40;99.90
52965;DHT22;42923;53.220;6.528;2023-05-23T01:02:51;13.50;99.90
52965;DHT22;42923;53.220;6.528;2023-05-23T01:05:18;13.50;99.90
52965;DHT22;42923;53.220;6.528;2023-05-23T01:07:47;13.40;99.90
52965;DHT22;42923;53.220;6.528;2023-05-23T01:10:14;13.50;99.90
52965;DHT22;42923;53.220;6.528;2023-05-23T01:13:12;13.40;99.90
52965;DHT22;42923;53.220;6.528;2023-05-23T01:15:47;13.50;99.90
52965;DHT22;42923;53.220;6.528;2023-05-23T01:18:16;13.50;99.90
52965;DHT22;42923;53.220;6.528;2023-05-23T01:21:11;13.40;99.90
52965;DHT22;42923;53.220;6.528;2023-05-23T01:27:46;13.30;99.90
52965;DHT22;42923;53.220;6.528;2023-05-23T01:29:45;13.20;99.90
52965;DHT22;42923;53.220;6.528;2023-05-23T01:32:13;13.20;99.90
52965;DHT22;42923;53.220;6.528;2023-05-23T01:34:41;13.20;99.90
52965;DHT22;42923;53.220;6.528;2023-05-23T01:37:09;13.10;99.90
52965;DHT22;42923;53.220;6.528;2023-05-23T01:39:36;13.00;99.90
52965;DHT22;42923;53.220;6.528;2023-05-23T01:42:03;13.00;99.90
52965;DHT22;42923;53.220;6.528;2023-05-23T01:44:29;13.00;99.90
52965;DHT22;42923;53.220;6.528;2023-05-23T01:46:55;12.90;99.90
52965;DHT22;42923;53.220;6.528;2023-05-23T01:49:22;13.00;99.90
52965;DHT22;42923;53.220;6.528;2023-05-23T01:51:49;12.90;99.90
52965;DHT22;42923;53.220;6.528;2023-05-23T01:54:15;12.90;99.90
52965;DHT22;42923;53.220;6.528;2023-05-23T01:56:42;12.70;99.90
52965;DHT22;42923;53.220;6.528;2023-05-23T01:59:08;12.60;99.90
52965;DHT22;42923;53.220;6.528;2023-05-23T02:01:34;12.60;99.90
52965;DHT22;42923;53.220;6.528;2023-05-23T02:04:00;12.60;99.90
52965;DHT22;42923;53.220;6.528;2023-05-23T02:06:26;12.50;99.90
52965;DHT22;42923;53.220;6.528;2023-05-23T02:08:52;12.50;99.90
52965;DHT22;42923;53.220;6.528;2023-05-23T02:11:17;12.40;99.90
52965;DHT22;42923;53.220;6.528;2023-05-23T02:13:43;12.40;99.90
52965;DHT22;42923;53.220;6.528;2023-05-23T02:16:09;12.40;99.90
52965;DHT22;42923;53.220;6.528;2023-05-23T02:18:36;12.20;99.90
52965;DHT22;42923;53.220;6.528;2023-05-23T02:21:04;12.30;99.90
52965;DHT22;42923;53.220;6.528;2023-05-23T02:23:29;12.30;99.90
52965;DHT22;42923;53.220;6.528;2023-05-23T02:25:55;12.20;99.90
52965;DHT22;42923;53.220;6.528;2023-05-23T02:28:21;12.20;99.90
52965;DHT22;42923;53.220;6.528;2023-05-23T02:30:48;12.20;99.90
52965;DHT22;42923;53.220;6.528;2023-05-23T02:33:14;12.10;99.90
52965;DHT22;42923;53.220;6.528;2023-05-23T02:35:41;12.00;99.90
52965;DHT22;42923;53.220;6.528;2023-05-23T02:38:09;11.90;99.90
52965;DHT22;42923;53.220;6.528;2023-05-23T02:40:34;11.90;99.90
52965;DHT22;42923;53.220;6.528;2023-05-23T02:43:00;11.80;99.90
52965;DHT22;42923;53.220;6.528;2023-05-23T02:45:26;11.80;99.90
52965;DHT22;42923;53.220;6.528;2023-05-23T02:47:52;11.80;99.90
52965;DHT22;42923;53.220;6.528;2023-05-23T02:50:18;11.80;99.90
52965;DHT22;42923;53.220;6.528;2023-05-23T02:52:43;11.80;99.90
52965;DHT22;42923;53.220;6.528;2023-05-23T02:55:09;11.70;99.90
52965;DHT22;42923;53.220;6.528;2023-05-23T02:57:40;11.70;99.90
52965;DHT22;42923;53.220;6.528;2023-05-23T03:00:06;11.70;99.90
52965;DHT22;42923;53.220;6.528;2023-05-23T03:02:34;11.70;99.90
52965;DHT22;42923;53.220;6.528;2023-05-23T03:05:00;11.80;99.90
52965;DHT22;42923;53.220;6.528;2023-05-23T03:07:25;11.70;99.90
52965;DHT22;42923;53.220;6.528;2023-05-23T03:09:51;11.80;99.90
52965;DHT22;42923;53.220;6.528;2023-05-23T03:12:17;11.90;99.90
52965;DHT22;42923;53.220;6.528;2023-05-23T03:14:43;11.80;99.90
52965;DHT22;42923;53.220;6.528;2023-05-23T03:17:12;11.80;99.90
52965;DHT22;42923;53.220;6.528;2023-05-23T03:19:37;12.10;99.90
52965;DHT22;42923;53.220;6.528;2023-05-23T03:22:03;11.80;99.90
52965;DHT22;42923;53.220;6.528;2023-05-23T03:24:29;11.80;99.90
52965;DHT22;42923;53.220;6.528;2023-05-23T03:26:56;11.80;99.90
52965;DHT22;42923;53.220;6.528;2023-05-23T03:29:22;11.80;99.90
52965;DHT22;42923;53.220;6.528;2023-05-23T03:31:48;11.80;99.90
52965;DHT22;42923;53.220;6.528;2023-05-23T03:34:14;11.80;99.90
52965;DHT22;42923;53.220;6.528;2023-05-23T03:36:40;11.80;99.90
52965;DHT22;42923;53.220;6.528;2023-05-23T03:39:06;11.80;99.90
52965;DHT22;42923;53.220;6.528;2023-05-23T03:41:32;11.80;99.90
52965;DHT22;42923;53.220;6.528;2023-05-23T03:43:58;11.80;99.90
52965;DHT22;42923;53.220;6.528;2023-05-23T03:46:25;11.70;99.90
52965;DHT22;42923;53.220;6.528;2023-05-23T03:48:51;11.70;99.90
52965;DHT22;42923;53.220;6.528;2023-05-23T03:51:17;11.70;99.90
52965;DHT22;42923;53.220;6.528;2023-05-23T03:53:43;11.90;99.90
52965;DHT22;42923;53.220;6.528;2023-05-23T03:56:08;11.90;99.90
52965;DHT22;42923;53.220;6.528;2023-05-23T03:58:34;11.70;99.90
52965;DHT22;42923;53.220;6.528;2023-05-23T04:01:06;11.70;99.90
52965;DHT22;42923;53.220;6.528;2023-05-23T04:03:31;11.80;99.90
52965;DHT22;42923;53.220;6.528;2023-05-23T04:06:00;11.70;99.90
52965;DHT22;42923;53.220;6.528;2023-05-23T04:08:26;11.70;99.90
52965;DHT22;42923;53.220;6.528;2023-05-23T04:10:53;11.70;99.90
52965;DHT22;42923;53.220;6.528;2023-05-23T04:13:21;11.70;99.90
52965;DHT22;42923;53.220;6.528;2023-05-23T04:15:47;11.80;99.90
52965;DHT22;42923;53.220;6.528;2023-05-23T04:18:13;11.70;99.90
52965;DHT22;42923;53.220;6.528;2023-05-23T04:20:40;11.70;99.90
52965;DHT22;42923;53.220;6.528;2023-05-23T04:23:06;11.70;99.90
52965;DHT22;42923;53.220;6.528;2023-05-23T04:25:35;11.70;99.90
52965;DHT22;42923;53.220;6.528;2023-05-23T04:28:19;11.70;99.90
52965;DHT22;42923;53.220;6.528;2023-05-23T04:30:45;11.70;99.90
52965;DHT22;42923;53.220;6.528;2023-05-23T04:33:14;11.80;99.90
52965;DHT22;42923;53.220;6.528;2023-05-23T04:35:41;11.70;99.90
52965;DHT22;42923;53.220;6.528;2023-05-23T04:38:08;11.70;99.90
52965;DHT22;42923;53.220;6.528;2023-05-23T04:40:35;11.70;99.90
52965;DHT22;42923;53.220;6.528;2023-05-23T04:43:13;11.80;99.90
52965;DHT22;42923;53.220;6.528;2023-05-23T04:46:04;11.80;99.90
52965;DHT22;42923;53.220;6.528;2023-05-23T04:48:35;11.80;99.90
52965;DHT22;42923;53.220;6.528;2023-05-23T04:51:02;11.70;99.90
52965;DHT22;42923;53.220;6.528;2023-05-23T04:53:33;11.70;99.90
52965;DHT22;42923;53.220;6.528;2023-05-23T04:55:59;11.70;99.90
52965;DHT22;42923;53.220;6.528;2023-05-23T04:58:25;11.70;99.90
52965;DHT22;42923;53.220;6.528;2023-05-23T05:00:55;11.70;99.90
52965;DHT22;42923;53.220;6.528;2023-05-23T05:03:20;11.70;99.90
52965;DHT22;42923;53.220;6.528;2023-05-23T05:05:49;11.70;99.90
52965;DHT22;42923;53.220;6.528;2023-05-23T05:08:15;11.70;99.90
52965;DHT22;42923;53.220;6.528;2023-05-23T05:10:44;11.60;99.90
52965;DHT22;42923;53.220;6.528;2023-05-23T05:13:10;11.60;99.90
52965;DHT22;42923;53.220;6.528;2023-05-23T05:15:42;11.50;99.90
52965;DHT22;42923;53.220;6.528;2023-05-23T05:18:08;11.40;99.90
52965;DHT22;42923;53.220;6.528;2023-05-23T05:20:34;11.40;99.90
52965;DHT22;42923;53.220;6.528;2023-05-23T05:23:00;11.40;99.90
52965;DHT22;42923;53.220;6.528;2023-05-23T05:25:27;11.30;99.90
52965;DHT22;42923;53.220;6.528;2023-05-23T05:27:59;11.30;99.90
52965;DHT22;42923;53.220;6.528;2023-05-23T05:30:27;11.30;99.90
52965;DHT22;42923;53.220;6.528;2023-05-23T05:32:56;11.30;99.90
52965;DHT22;42923;53.220;6.528;2023-05-23T05:35:23;11.30;99.90
52965;DHT22;42923;53.220;6.528;2023-05-23T05:37:48;11.30;99.90
52965;DHT22;42923;53.220;6.528;2023-05-23T05:40:14;11.20;99.90
52965;DHT22;42923;53.220;6.528;2023-05-23T05:42:41;11.40;99.90
52965;DHT22;42923;53.220;6.528;2023-05-23T05:45:09;11.30;99.90
52965;DHT22;42923;53.220;6.528;2023-05-23T05:47:36;11.30;99.90
52965;DHT22;42923;53.220;6.528;2023-05-23T05:50:04;11.50;99.90
52965;DHT22;42923;53.220;6.528;2023-05-23T05:52:33;11.30;99.90
52965;DHT22;42923;53.220;6.528;2023-05-23T05:55:08;11.40;99.90
52965;DHT22;42923;53.220;6.528;2023-05-23T05:57:39;11.40;99.90
52965;DHT22;42923;53.220;6.528;2023-05-23T06:00:10;11.40;99.90
52965;DHT22;42923;53.220;6.528;2023-05-23T06:02:45;11.40;99.90
52965;DHT22;42923;53.220;6.528;2023-05-23T06:05:22;11.40;99.90
52965;DHT22;42923;53.220;6.528;2023-05-23T06:07:49;11.40;99.90
52965;DHT22;42923;53.220;6.528;2023-05-23T06:10:15;11.40;99.90
52965;DHT22;42923;53.220;6.528;2023-05-23T06:12:41;11.30;99.90
52965;DHT22;42923;53.220;6.528;2023-05-23T06:15:08;11.30;99.90
52965;DHT22;42923;53.220;6.528;2023-05-23T06:17:39;11.30;99.90
52965;DHT22;42923;53.220;6.528;2023-05-23T06:20:05;11.30;99.90
52965;DHT22;42923;53.220;6.528;2023-05-23T06:22:33;11.30;99.90
52965;DHT22;42923;53.220;6.528;2023-05-23T06:24:59;11.30;99.90
52965;DHT22;42923;53.220;6.528;2023-05-23T06:27:24;11.30;99.90
52965;DHT22;42923;53.220;6.528;2023-05-23T06:29:50;11.30;99.90
52965;DHT22;42923;53.220;6.528;2023-05-23T06:32:16;11.30;99.90
52965;DHT22;42923;53.220;6.528;2023-05-23T06:34:42;11.40;99.90
52965;DHT22;42923;53.220;6.528;2023-05-23T06:37:07;11.50;99.90
52965;DHT22;42923;53.220;6.528;2023-05-23T06:39:33;11.50;99.90
52965;DHT22;42923;53.220;6.528;2023-05-23T06:41:59;11.60;99.90
52965;DHT22;42923;53.220;6.528;2023-05-23T06:44:32;11.70;99.90
52965;DHT22;42923;53.220;6.528;2023-05-23T06:47:01;11.80;99.90
52965;DHT22;42923;53.220;6.528;2023-05-23T06:49:27;11.90;99.90
52965;DHT22;42923;53.220;6.528;2023-05-23T06:51:53;11.90;99.90
52965;DHT22;42923;53.220;6.528;2023-05-23T06:54:19;12.00;99.90
52965;DHT22;42923;53.220;6.528;2023-05-23T06:56:45;12.00;99.90
52965;DHT22;42923;53.220;6.528;2023-05-23T06:59:10;12.00;99.90
52965;DHT22;42923;53.220;6.528;2023-05-23T07:01:37;12.10;99.90
52965;DHT22;42923;53.220;6.528;2023-05-23T07:04:03;12.10;99.90
52965;DHT22;42923;53.220;6.528;2023-05-23T07:06:29;12.10;99.90
52965;DHT22;42923;53.220;6.528;2023-05-23T07:08:56;12.30;99.90
52965;DHT22;42923;53.220;6.528;2023-05-23T07:11:23;12.20;99.90
52965;DHT22;42923;53.220;6.528;2023-05-23T07:13:53;12.10;99.90
52965;DHT22;42923;53.220;6.528;2023-05-23T07:16:29;12.10;99.90
52965;DHT22;42923;53.220;6.528;2023-05-23T07:19:01;12.00;99.90
52965;DHT22;42923;53.220;6.528;2023-05-23T07:21:29;11.90;99.90
52965;DHT22;42923;53.220;6.528;2023-05-23T07:23:55;11.90;99.90
52965;DHT22;42923;53.220;6.528;2023-05-23T07:26:21;12.00;99.90
52965;DHT22;42923;53.220;6.528;2023-05-23T07:28:51;12.00;99.90
52965;DHT22;42923;53.220;6.528;2023-05-23T07:31:17;12.00;99.90
52965;DHT22;42923;53.220;6.528;2023-05-23T07:33:43;12.00;99.90
52965;DHT22;42923;53.220;6.528;2023-05-23T07:36:13;12.00;99.90
52965;DHT22;42923;53.220;6.528;2023-05-23T07:38:38;12.00;99.90
52965;DHT22;42923;53.220;6.528;2023-05-23T07:41:04;12.20;99.90
52965;DHT22;42923;53.220;6.528;2023-05-23T07:43:30;12.20;99.90
52965;DHT22;42923;53.220;6.528;2023-05-23T07:45:56;12.30;99.90
52965;DHT22;42923;53.220;6.528;2023-05-23T07:48:21;12.40;99.90
52965;DHT22;42923;53.220;6.528;2023-05-23T07:50:47;12.50;99.90
52965;DHT22;42923;53.220;6.528;2023-05-23T07:53:13;13.00;99.90
52965;DHT22;42923;53.220;6.528;2023-05-23T07:55:40;12.70;99.90
52965;DHT22;42923;53.220;6.528;2023-05-23T07:58:06;12.80;99.90
52965;DHT22;42923;53.220;6.528;2023-05-23T08:00:32;12.70;99.90
52965;DHT22;42923;53.220;6.528;2023-05-23T08:03:06;12.80;99.90
52965;DHT22;42923;53.220;6.528;2023-05-23T08:05:38;12.80;99.90
52965;DHT22;42923;53.220;6.528;2023-05-23T08:08:04;12.80;99.90
52965;DHT22;42923;53.220;6.528;2023-05-23T08:10:30;12.80;99.90
52965;DHT22;42923;53.220;6.528;2023-05-23T08:13:03;12.80;99.90
52965;DHT22;42923;53.220;6.528;2023-05-23T08:15:35;12.80;99.90
52965;DHT22;42923;53.220;6.528;2023-05-23T08:18:08;12.80;99.90
52965;DHT22;42923;53.220;6.528;2023-05-23T08:20:33;12.90;99.90
52965;DHT22;42923;53.220;6.528;2023-05-23T08:23:00;13.20;99.90
52965;DHT22;42923;53.220;6.528;2023-05-23T08:25:28;13.40;99.90
52965;DHT22;42923;53.220;6.528;2023-05-23T08:27:57;13.70;99.90
52965;DHT22;42923;53.220;6.528;2023-05-23T08:30:43;13.90;99.90
52965;DHT22;42923;53.220;6.528;2023-05-23T08:33:09;13.80;99.90
52965;DHT22;42923;53.220;6.528;2023-05-23T08:35:37;13.80;99.90
52965;DHT22;42923;53.220;6.528;2023-05-23T08:38:06;13.80;99.90
52965;DHT22;42923;53.220;6.528;2023-05-23T08:40:39;14.00;99.90
52965;DHT22;42923;53.220;6.528;2023-05-23T08:43:10;14.00;99.90
52965;DHT22;42923;53.220;6.528;2023-05-23T08:45:37;14.00;99.90
52965;DHT22;42923;53.220;6.528;2023-05-23T08:48:07;14.00;99.90
52965;DHT22;42923;53.220;6.528;2023-05-23T08:50:39;14.10;99.90
52965;DHT22;42923;53.220;6.528;2023-05-23T08:53:05;14.00;99.90
52965;DHT22;42923;53.220;6.528;2023-05-23T08:55:36;13.90;99.90
52965;DHT22;42923;53.220;6.528;2023-05-23T08:58:02;13.90;99.90
52965;DHT22;42923;53.220;6.528;2023-05-23T09:00:38;14.00;99.90
52965;DHT22;42923;53.220;6.528;2023-05-23T09:03:03;14.00;99.90
52965;DHT22;42923;53.220;6.528;2023-05-23T09:05:50;14.10;99.90
52965;DHT22;42923;53.220;6.528;2023-05-23T09:08:18;14.10;99.90
52965;DHT22;42923;53.220;6.528;2023-05-23T09:10:44;13.90;99.90
52965;DHT22;42923;53.220;6.528;2023-05-23T09:13:11;13.80;99.90
52965;DHT22;42923;53.220;6.528;2023-05-23T09:16:01;13.80;99.90
52965;DHT22;42923;53.220;6.528;2023-05-23T09:18:34;13.60;99.90
52965;DHT22;42923;53.220;6.528;2023-05-23T09:21:02;13.60;99.90
52965;DHT22;42923;53.220;6.528;2023-05-23T09:23:32;13.70;99.90
52965;DHT22;42923;53.220;6.528;2023-05-23T09:26:03;13.80;99.90
52965;DHT22;42923;53.220;6.528;2023-05-23T09:28:34;14.20;99.90
52965;DHT22;42923;53.220;6.528;2023-05-23T09:31:04;14.30;99.90
52965;DHT22;42923;53.220;6.528;2023-05-23T09:33:45;14.40;99.90
52965;DHT22;42923;53.220;6.528;2023-05-23T09:36:18;14.30;99.90
52965;DHT22;42923;53.220;6.528;2023-05-23T09:38:46;14.40;99.90
52965;DHT22;42923;53.220;6.528;2023-05-23T09:41:13;14.40;99.90
52965;DHT22;42923;53.220;6.528;2023-05-23T09:43:51;14.50;99.90
52965;DHT22;42923;53.220;6.528;2023-05-23T09:46:20;14.60;99.90
52965;DHT22;42923;53.220;6.528;2023-05-23T09:48:47;14.70;99.90
52965;DHT22;42923;53.220;6.528;2023-05-23T09:51:13;14.70;99.90
52965;DHT22;42923;53.220;6.528;2023-05-23T09:53:39;14.60;99.90
52965;DHT22;42923;53.220;6.528;2023-05-23T09:56:06;14.60;99.90
52965;DHT22;42923;53.220;6.528;2023-05-23T09:58:36;14.60;99.90
52965;DHT22;42923;53.220;6.528;2023-05-23T10:01:06;14.60;99.90
52965;DHT22;42923;53.220;6.528;2023-05-23T10:03:51;14.80;99.90
52965;DHT22;42923;53.220;6.528;2023-05-23T10:06:28;14.90;99.90
52965;DHT22;42923;53.220;6.528;2023-05-23T10:14:00;15.30;99.90
52965;DHT22;42923;53.220;6.528;2023-05-23T10:16:37;15.30;99.90
52965;DHT22;42923;53.220;6.528;2023-05-23T10:21:58;15.10;99.90
52965;DHT22;42923;53.220;6.528;2023-05-23T10:24:24;15.10;99.90
52965;DHT22;42923;53.220;6.528;2023-05-23T10:26:51;15.00;99.90
52965;DHT22;42923;53.220;6.528;2023-05-23T10:29:17;14.80;99.90
52965;DHT22;42923;53.220;6.528;2023-05-23T10:31:43;14.80;99.90
52965;DHT22;42923;53.220;6.528;2023-05-23T10:37:04;14.70;99.90
52965;DHT22;42923;53.220;6.528;2023-05-23T10:39:48;14.70;99.90
52965;DHT22;42923;53.220;6.528;2023-05-23T10:42:40;14.60;99.90
52965;DHT22;42923;53.220;6.528;2023-05-23T10:45:21;14.40;99.90
52965;DHT22;42923;53.220;6.528;2023-05-23T10:47:48;14.70;99.90
52965;DHT22;42923;53.220;6.528;2023-05-23T10:50:33;15.30;99.90
52965;DHT22;42923;53.220;6.528;2023-05-23T10:53:03;15.80;99.90
52965;DHT22;42923;53.220;6.528;2023-05-23T10:55:34;15.90;99.90
52965;DHT22;42923;53.220;6.528;2023-05-23T10:58:18;15.90;99.90
52965;DHT22;42923;53.220;6.528;2023-05-23T11:01:07;15.80;99.90
52965;DHT22;42923;53.220;6.528;2023-05-23T11:03:47;16.00;99.90
52965;DHT22;42923;53.220;6.528;2023-05-23T11:06:39;16.10;99.90
52965;DHT22;42923;53.220;6.528;2023-05-23T11:09:17;16.10;99.90
52965;DHT22;42923;53.220;6.528;2023-05-23T11:14:19;16.00;99.90
52965;DHT22;42923;53.220;6.528;2023-05-23T11:16:45;15.70;99.90
52965;DHT22;42923;53.220;6.528;2023-05-23T11:22:03;15.60;99.90
52965;DHT22;42923;53.220;6.528;2023-05-23T11:24:49;15.70;99.90
52965;DHT22;42923;53.220;6.528;2023-05-23T11:29:58;16.10;99.90
52965;DHT22;42923;53.220;6.528;2023-05-23T11:32:27;16.10;99.90
52965;DHT22;42923;53.220;6.528;2023-05-23T11:34:53;15.80;99.90
52965;DHT22;42923;53.220;6.528;2023-05-23T11:37:19;15.70;99.90
52965;DHT22;42923;53.220;6.528;2023-05-23T11:39:45;15.70;99.90
52965;DHT22;42923;53.220;6.528;2023-05-23T11:42:11;15.80;99.90
52965;DHT22;42923;53.220;6.528;2023-05-23T11:44:37;16.00;99.90
52965;DHT22;42923;53.220;6.528;2023-05-23T11:47:04;16.00;99.90
52965;DHT22;42923;53.220;6.528;2023-05-23T11:49:34;15.80;99.90
52965;DHT22;42923;53.220;6.528;2023-05-23T11:52:01;15.80;99.90
52965;DHT22;42923;53.220;6.528;2023-05-23T11:54:27;16.10;99.90
52965;DHT22;42923;53.220;6.528;2023-05-23T11:56:56;16.30;99.90
52965;DHT22;42923;53.220;6.528;2023-05-23T11:59:23;16.50;99.90
52965;DHT22;42923;53.220;6.528;2023-05-23T12:01:54;16.60;99.90
52965;DHT22;42923;53.220;6.528;2023-05-23T12:04:20;16.80;99.90
52965;DHT22;42923;53.220;6.528;2023-05-23T12:06:47;16.80;99.90
52965;DHT22;42923;53.220;6.528;2023-05-23T12:09:14;16.70;99.90
52965;DHT22;42923;53.220;6.528;2023-05-23T12:11:41;16.60;99.90
52965;DHT22;42923;53.220;6.528;2023-05-23T12:14:08;16.40;99.90
52965;DHT22;42923;53.220;6.528;2023-05-23T12:16:38;16.30;99.90
52965;DHT22;42923;53.220;6.528;2023-05-23T12:19:04;16.20;99.90
52965;DHT22;42923;53.220;6.528;2023-05-23T12:21:45;16.30;99.90
52965;DHT22;42923;53.220;6.528;2023-05-23T12:26:46;16.10;99.90
52965;DHT22;42923;53.220;6.528;2023-05-23T12:29:12;16.20;99.90
52965;DHT22;42923;53.220;6.528;2023-05-23T12:31:37;16.20;99.90
52965;DHT22;42923;53.220;6.528;2023-05-23T12:34:03;16.10;99.90
52965;DHT22;42923;53.220;6.528;2023-05-23T12:36:29;16.10;99.90
52965;DHT22;42923;53.220;6.528;2023-05-23T12:39:02;16.20;99.90
52965;DHT22;42923;53.220;6.528;2023-05-23T12:41:29;16.00;99.90
52965;DHT22;42923;53.220;6.528;2023-05-23T12:43:55;16.00;99.90
52965;DHT22;42923;53.220;6.528;2023-05-23T12:46:23;16.30;99.90
52965;DHT22;42923;53.220;6.528;2023-05-23T12:48:49;16.50;99.90
52965;DHT22;42923;53.220;6.528;2023-05-23T12:51:15;16.40;99.90
52965;DHT22;42923;53.220;6.528;2023-05-23T12:53:41;16.40;99.90
52965;DHT22;42923;53.220;6.528;2023-05-23T12:56:07;16.70;99.90
52965;DHT22;42923;53.220;6.528;2023-05-23T12:58:33;16.70;99.90
52965;DHT22;42923;53.220;6.528;2023-05-23T13:01:00;16.50;99.90
52965;DHT22;42923;53.220;6.528;2023-05-23T13:03:27;16.20;99.90
52965;DHT22;42923;53.220;6.528;2023-05-23T13:05:55;16.20;99.90
52965;DHT22;42923;53.220;6.528;2023-05-23T13:08:22;16.20;99.90
52965;DHT22;42923;53.220;6.528;2023-05-23T13:10:48;16.00;99.90
52965;DHT22;42923;53.220;6.528;2023-05-23T13:13:14;15.90;99.90
52965;DHT22;42923;53.220;6.528;2023-05-23T13:15:39;16.10;99.90
52965;DHT22;42923;53.220;6.528;2023-05-23T13:18:06;16.20;99.90
52965;DHT22;42923;53.220;6.528;2023-05-23T13:20:31;16.00;99.90
52965;DHT22;42923;53.220;6.528;2023-05-23T13:22:58;15.80;99.90
52965;DHT22;42923;53.220;6.528;2023-05-23T13:25:26;15.90;99.90
52965;DHT22;42923;53.220;6.528;2023-05-23T13:27:52;16.30;99.90
52965;DHT22;42923;53.220;6.528;2023-05-23T13:30:19;16.60;99.90
52965;DHT22;42923;53.220;6.528;2023-05-23T13:32:45;16.60;99.90
52965;DHT22;42923;53.220;6.528;2023-05-23T13:35:10;16.50;99.90
52965;DHT22;42923;53.220;6.528;2023-05-23T13:37:36;16.60;99.90
52965;DHT22;42923;53.220;6.528;2023-05-23T13:40:03;16.60;99.90
52965;DHT22;42923;53.220;6.528;2023-05-23T13:42:29;16.80;99.90
52965;DHT22;42923;53.220;6.528;2023-05-23T13:44:55;17.10;99.90
52965;DHT22;42923;53.220;6.528;2023-05-23T13:47:21;17.40;99.90
52965;DHT22;42923;53.220;6.528;2023-05-23T13:49:47;17.40;97.40
52965;DHT22;42923;53.220;6.528;2023-05-23T13:52:12;17.40;97.20
52965;DHT22;42923;53.220;6.528;2023-05-23T13:54:38;17.40;97.50
52965;DHT22;42923;53.220;6.528;2023-05-23T13:57:06;17.40;97.20
52965;DHT22;42923;53.220;6.528;2023-05-23T13:59:32;17.30;97.50
52965;DHT22;42923;53.220;6.528;2023-05-23T14:01:58;17.40;94.80
52965;DHT22;42923;53.220;6.528;2023-05-23T14:04:24;17.30;93.40
52965;DHT22;42923;53.220;6.528;2023-05-23T14:06:49;16.90;94.20
52965;DHT22;42923;53.220;6.528;2023-05-23T14:09:16;16.80;95.90
52965;DHT22;42923;53.220;6.528;2023-05-23T14:11:42;16.70;96.80
52965;DHT22;42923;53.220;6.528;2023-05-23T14:14:09;16.80;96.70
52965;DHT22;42923;53.220;6.528;2023-05-23T14:16:34;16.70;97.80
52965;DHT22;42923;53.220;6.528;2023-05-23T14:19:00;16.90;98.30
52965;DHT22;42923;53.220;6.528;2023-05-23T14:21:26;17.10;98.40
52965;DHT22;42923;53.220;6.528;2023-05-23T14:23:53;17.20;96.20
52965;DHT22;42923;53.220;6.528;2023-05-23T14:26:18;17.30;96.70
52965;DHT22;42923;53.220;6.528;2023-05-23T14:28:44;17.60;96.00
52965;DHT22;42923;53.220;6.528;2023-05-23T14:31:10;17.70;93.50
52965;DHT22;42923;53.220;6.528;2023-05-23T14:33:36;17.20;91.80
52965;DHT22;42923;53.220;6.528;2023-05-23T14:36:01;17.00;93.80
52965;DHT22;42923;53.220;6.528;2023-05-23T14:38:27;17.20;92.40
52965;DHT22;42923;53.220;6.528;2023-05-23T14:40:53;17.00;90.50
52965;DHT22;42923;53.220;6.528;2023-05-23T14:43:19;16.60;91.80
52965;DHT22;42923;53.220;6.528;2023-05-23T14:45:45;16.60;92.70
52965;DHT22;42923;53.220;6.528;2023-05-23T14:48:11;16.80;94.20
52965;DHT22;42923;53.220;6.528;2023-05-23T14:50:37;16.90;92.30
52965;DHT22;42923;53.220;6.528;2023-05-23T14:53:02;16.70;92.10
52965;DHT22;42923;53.220;6.528;2023-05-23T14:55:28;16.60;93.50
52965;DHT22;42923;53.220;6.528;2023-05-23T14:57:54;16.70;92.70
52965;DHT22;42923;53.220;6.528;2023-05-23T15:00:21;16.50;92.20
52965;DHT22;42923;53.220;6.528;2023-05-23T15:02:46;16.40;92.80
52965;DHT22;42923;53.220;6.528;2023-05-23T15:05:12;16.60;93.10
52965;DHT22;42923;53.220;6.528;2023-05-23T15:07:40;16.90;92.60
52965;DHT22;42923;53.220;6.528;2023-05-23T15:10:06;17.30;91.10
52965;DHT22;42923;53.220;6.528;2023-05-23T15:12:33;17.40;90.30
52965;DHT22;42923;53.220;6.528;2023-05-23T15:14:59;17.40;88.00
52965;DHT22;42923;53.220;6.528;2023-05-23T15:17:29;17.40;86.60
52965;DHT22;42923;53.220;6.528;2023-05-23T15:19:55;17.60;86.40
52965;DHT22;42923;53.220;6.528;2023-05-23T15:22:20;17.70;83.90
52965;DHT22;42923;53.220;6.528;2023-05-23T15:24:46;17.40;83.70
52965;DHT22;42923;53.220;6.528;2023-05-23T15:27:12;17.40;84.90
52965;DHT22;42923;53.220;6.528;2023-05-23T15:29:37;17.20;83.90
52965;DHT22;42923;53.220;6.528;2023-05-23T15:32:06;17.00;85.10
52965;DHT22;42923;53.220;6.528;2023-05-23T15:34:32;16.80;86.00
52965;DHT22;42923;53.220;6.528;2023-05-23T15:36:57;16.70;85.20
52965;DHT22;42923;53.220;6.528;2023-05-23T15:39:25;16.40;86.20
52965;DHT22;42923;53.220;6.528;2023-05-23T15:41:51;16.10;87.00
52965;DHT22;42923;53.220;6.528;2023-05-23T15:44:17;15.60;88.90
52965;DHT22;42923;53.220;6.528;2023-05-23T15:46:46;15.60;90.50
52965;DHT22;42923;53.220;6.528;2023-05-23T15:49:12;15.50;91.00
52965;DHT22;42923;53.220;6.528;2023-05-23T15:51:38;15.30;91.30
52965;DHT22;42923;53.220;6.528;2023-05-23T15:54:04;15.20;91.10
52965;DHT22;42923;53.220;6.528;2023-05-23T15:56:30;15.00;91.30
52965;DHT22;42923;53.220;6.528;2023-05-23T15:58:56;14.90;91.50
52965;DHT22;42923;53.220;6.528;2023-05-23T16:01:21;14.80;92.10